Time;durP1;ratioP1;P1;durP2;ratioP2;P2;SDS_P1;SDS_P2;PMS_P1;PMS_P2;Temp;Humidity;BMP_temperature;BMP_pressure;BME280_temperature;BME280_humidity;BME280_pressure;Samples;Min_cycle;Max_cycle;Signal;HPM_P1;HPM_P2
2022/07/01 00:00:45;;;;;;;13.02;11.60;;;;;;;-141.48;100.00;69781.59;4932359;30;20031;-62
2022/07/01 00:04:14;;;;;;;16.92;15.20;;;;;;;-141.48;100.00;69781.59;4951416;24;20049;-66
2022/07/01 00:07:43;;;;;;;13.50;12.18;;;;;;;-141.48;100.00;69781.59;4968357;29;20515;-66
2022/07/01 00:11:12;;;;;;;15.43;13.88;;;;;;;-141.48;100.00;69781.59;4968457;29;20027;-66
2022/07/01 00:14:42;;;;;;;15.32;13.98;;;;;;;-141.48;100.00;69781.59;4968106;29;20105;-66
2022/07/01 00:18:08;;;;;;;12.85;11.57;;;;;;;-141.48;100.00;69781.59;4968538;29;20030;-66
2022/07/01 00:21:37;;;;;;;17.88;14.13;;;;;;;-141.48;100.00;69781.59;4968668;29;20511;-66
2022/07/01 00:25:07;;;;;;;17.15;15.38;;;;;;;-141.48;100.00;69781.59;4966666;29;20045;-66
2022/07/01 00:28:37;;;;;;;17.00;13.35;;;;;;;-141.48;100.00;69781.59;4968418;29;20027;-66
2022/07/01 00:32:07;;;;;;;17.92;15.95;;;;;;;-141.48;100.00;69781.59;4968566;29;20488;-66
2022/07/01 00:35:36;;;;;;;15.07;13.05;;;;;;;-141.48;100.00;69781.59;4966547;29;20031;-67
2022/07/01 00:39:05;;;;;;;21.05;15.32;;;;;;;-141.48;100.00;69781.59;4968178;29;20035;-66
2022/07/01 00:42:37;;;;;;;18.85;14.50;;;;;;;-141.48;100.00;69781.59;4968471;29;20458;-66
2022/07/01 00:46:07;;;;;;;15.35;13.93;;;;;;;-141.48;100.00;69781.59;4967792;29;20480;-66
2022/07/01 00:49:36;;;;;;;24.63;14.88;;;;;;;-141.48;100.00;69781.59;4966667;29;20035;-67
2022/07/01 00:53:06;;;;;;;15.23;13.23;;;;;;;-141.48;100.00;69781.59;4970536;29;20042;-66
2022/07/01 00:56:35;;;;;;;14.32;12.85;;;;;;;-141.48;100.00;69781.59;4971180;29;20035;-66
2022/07/01 01:00:06;;;;;;;15.90;12.57;;;;;;;-141.48;100.00;69781.59;4970186;29;20387;-66
2022/07/01 01:03:35;;;;;;;23.50;14.40;;;;;;;-141.48;100.00;69781.59;4971682;29;20031;-67
2022/07/01 01:07:04;;;;;;;18.83;16.85;;;;;;;-141.48;100.00;69781.59;4969508;29;20063;-67
2022/07/01 01:10:35;;;;;;;14.60;13.18;;;;;;;-141.48;100.00;69781.59;4970175;29;20525;-66
2022/07/01 01:14:04;;;;;;;14.48;13.20;;;;;;;-141.48;100.00;69781.59;4971697;29;20034;-64
2022/07/01 01:17:33;;;;;;;15.13;13.80;;;;;;;-141.48;100.00;69781.59;4971510;29;20089;-67
2022/07/01 01:21:02;;;;;;;15.98;13.57;;;;;;;-141.48;100.00;69781.59;4971358;29;20049;-67
2022/07/01 01:24:31;;;;;;;14.52;12.30;;;;;;;-141.48;100.00;69781.59;4968306;29;20539;-67
2022/07/01 01:28:02;;;;;;;15.30;11.60;;;;;;;-141.48;100.00;69781.59;4971153;29;20409;-66
2022/07/01 01:31:33;;;;;;;13.00;11.23;;;;;;;-141.48;100.00;69781.59;4971000;29;20050;-66
2022/07/01 01:35:02;;;;;;;12.25;11.35;;;;;;;-141.48;100.00;69781.59;4970914;29;20027;-67
2022/07/01 01:38:33;;;;;;;16.90;13.40;;;;;;;-141.48;100.00;69781.59;4969707;29;20095;-64
2022/07/01 01:42:03;;;;;;;12.02;11.07;;;;;;;-141.48;100.00;69781.59;4970945;29;20572;-66
2022/07/01 01:45:32;;;;;;;16.02;14.50;;;;;;;-141.48;100.00;69781.59;4969001;29;20030;-67
2022/07/01 01:49:02;;;;;;;14.80;13.57;;;;;;;-141.48;100.00;69781.59;4969689;29;20033;-67
2022/07/01 01:52:31;;;;;;;;;;;;;;;-141.48;100.00;69781.59;4971028;29;20046;-67
2022/07/01 01:56:00;;;;;;;10.52;9.63;;;;;;;-141.48;100.00;69781.59;4953842;29;19947;-65
2022/07/01 01:59:29;;;;;;;12.05;10.73;;;;;;;-141.48;100.00;69781.59;4970624;29;20027;-66
2022/07/01 02:02:58;;;;;;;12.05;10.50;;;;;;;-141.48;100.00;69781.59;4969643;29;20079;-66
2022/07/01 02:06:27;;;;;;;11.15;10.20;;;;;;;-141.48;100.00;69781.59;4969954;29;20039;-66
2022/07/01 02:09:56;;;;;;;10.35;9.68;;;;;;;-141.48;100.00;69781.59;4970631;29;20106;-67
2022/07/01 02:13:25;;;;;;;15.52;11.75;;;;;;;-141.48;100.00;69781.59;4968501;29;20057;-66
2022/07/01 02:16:54;;;;;;;12.43;11.40;;;;;;;-141.48;100.00;69781.59;4970485;29;20035;-66
2022/07/01 02:20:23;;;;;;;14.10;12.77;;;;;;;-141.48;100.00;69781.59;4970155;29;20072;-67
2022/07/01 02:23:52;;;;;;;13.45;12.13;;;;;;;-141.48;100.00;69781.59;4970099;29;20038;-64
2022/07/01 02:27:21;;;;;;;13.25;11.77;;;;;;;-141.48;100.00;69781.59;4967701;29;20038;-66
2022/07/01 02:30:50;;;;;;;12.50;9.23;;;;;;;-141.48;100.00;69781.59;4970115;29;20035;-66
2022/07/01 02:34:19;;;;;;;13.60;12.00;;;;;;;-141.48;100.00;69781.59;4970039;29;20392;-66
2022/07/01 02:37:48;;;;;;;9.93;9.05;;;;;;;-141.48;100.00;69781.59;4965751;29;20023;-67
2022/07/01 02:41:16;;;;;;;11.52;10.68;;;;;;;-141.48;100.00;69781.59;4968507;29;20027;-65
2022/07/01 02:44:45;;;;;;;14.30;13.10;;;;;;;-141.48;100.00;69781.59;4969241;29;20031;-66
2022/07/01 02:48:14;;;;;;;14.07;12.68;;;;;;;-141.48;100.00;69781.59;4969640;29;20031;-66
2022/07/01 02:51:43;;;;;;;12.35;11.10;;;;;;;-141.48;100.00;69781.59;4969454;29;20057;-64
2022/07/01 02:55:13;;;;;;;11.18;10.38;;;;;;;-141.48;100.00;69781.59;4969053;29;20438;-67
2022/07/01 02:58:42;;;;;;;14.43;9.27;;;;;;;-141.48;100.00;69781.59;4969713;29;20510;-66
2022/07/01 03:02:11;;;;;;;17.77;12.47;;;;;;;-141.48;100.00;69781.59;4969474;29;20079;-66
2022/07/01 03:05:40;;;;;;;21.65;12.43;;;;;;;-141.48;100.00;69781.59;4968798;29;20042;-67
2022/07/01 03:09:08;;;;;;;13.82;12.40;;;;;;;-141.48;100.00;69781.59;4969462;29;20031;-66
2022/07/01 03:12:39;;;;;;;12.23;11.18;;;;;;;-141.48;100.00;69781.59;4969113;29;20058;-66
2022/07/01 03:16:09;;;;;;;14.00;12.45;;;;;;;-141.48;100.00;69781.59;4968666;29;20031;-65
2022/07/01 03:19:37;;;;;;;;;;;;;;;-141.48;100.00;69781.59;4969490;29;20042;-66
2022/07/01 03:23:06;;;;;;;10.20;9.40;;;;;;;-141.48;100.00;69781.59;4969258;29;19913;-66
2022/07/01 03:26:35;;;;;;;16.80;13.95;;;;;;;-141.48;100.00;69781.59;4968812;29;20404;-65
2022/07/01 03:30:05;;;;;;;12.30;11.35;;;;;;;-141.48;100.00;69781.59;4969181;29;20034;-66
2022/07/01 03:32:56;;;;;;;13.15;11.07;;;;;;;-141.48;100.00;69781.59;4969161;29;20034;-66
2022/07/01 03:36:18;;;;;;;13.77;12.38;;;;;;;-141.48;100.00;69781.59;4967306;29;20047;-67
2022/07/01 03:39:43;;;;;;;14.13;11.68;;;;;;;-141.48;100.00;69781.59;4968998;29;20113;-66
2022/07/01 03:42:43;;;;;;;13.73;12.38;;;;;;;-141.48;100.00;69781.59;4968969;29;20508;-64
2022/07/01 03:46:07;;;;;;;13.52;11.07;;;;;;;-141.48;100.00;69781.59;4968604;29;20110;-64
2022/07/01 03:49:36;;;;;;;14.20;12.70;;;;;;;-141.48;100.00;69781.59;4968949;29;20157;-66
2022/07/01 03:56:53;;;;;;;10.95;10.15;;;;;;;-141.48;100.00;69781.59;4968997;29;20097;-65
2022/07/01 04:00:23;;;;;;;13.07;11.77;;;;;;;-141.48;100.00;69781.59;4968887;29;20106;-66
2022/07/01 04:03:52;;;;;;;;;;;;;;;-141.48;100.00;69781.59;4968722;29;20034;-66
2022/07/01 04:07:21;;;;;;;12.90;11.70;;;;;;;-141.48;100.00;69781.59;4968665;29;20008;-66
2022/07/01 04:10:53;;;;;;;14.57;12.40;;;;;;;-141.48;100.00;69781.59;4968524;29;20488;-66
2022/07/01 04:14:24;;;;;;;13.57;12.23;;;;;;;-141.48;100.00;69781.59;4966686;29;20176;-65
2022/07/01 04:17:53;;;;;;;15.50;12.45;;;;;;;-141.48;100.00;69781.59;4968381;29;20059;-66
2022/07/01 04:25:09;;;;;;;14.50;12.20;;;;;;;-141.48;100.00;69781.59;4967935;29;20107;-67
2022/07/01 04:28:38;;;;;;;18.38;12.63;;;;;;;-141.48;100.00;69781.59;4968635;29;20484;-66
2022/07/01 04:32:07;;;;;;;14.98;12.70;;;;;;;-141.48;100.00;69781.59;4968222;29;20102;-66
2022/07/01 04:35:38;;;;;;;19.80;13.70;;;;;;;-141.48;100.00;69781.59;4966237;29;20400;-66
2022/07/01 04:39:07;;;;;;;12.73;11.63;;;;;;;-141.48;100.00;69781.59;4968619;29;20488;-64
2022/07/01 04:42:36;;;;;;;12.82;11.68;;;;;;;-141.48;100.00;69781.59;4966187;29;20042;-67
2022/07/01 04:46:05;;;;;;;13.10;11.88;;;;;;;-141.48;100.00;69781.59;4967968;29;20504;-66
2022/07/01 04:49:34;;;;;;;14.77;13.47;;;;;;;-141.48;100.00;69781.59;4968624;29;20477;-66
2022/07/01 04:53:03;;;;;;;15.10;10.57;;;;;;;-141.48;100.00;69781.59;4965616;29;20027;-66
2022/07/01 04:56:33;;;;;;;13.50;12.17;;;;;;;-141.48;100.00;69781.59;4967542;29;20036;-65
2022/07/01 05:00:02;;;;;;;12.23;11.30;;;;;;;-141.48;100.00;69781.59;4951923;29;20469;-65
2022/07/01 05:03:32;;;;;;;9.00;8.30;;;;;;;-141.48;100.00;69781.59;4968064;29;20088;-67
2022/07/01 05:07:01;;;;;;;13.30;10.15;;;;;;;-141.48;100.00;69781.59;4968253;29;20079;-65
2022/07/01 05:10:30;;;;;;;16.35;11.70;;;;;;;-141.48;100.00;69781.59;4968043;29;20039;-67
2022/07/01 05:13:59;;;;;;;13.32;12.10;;;;;;;-141.48;100.00;69781.59;4968089;29;20039;-68
2022/07/01 05:21:55;;;;;;;13.13;12.20;;;;;;;-141.48;100.00;69781.59;4967701;29;20091;-67
2022/07/01 05:25:05;;;;;;;13.85;11.30;;;;;;;-141.48;100.00;69781.59;4967231;29;20061;-67
2022/07/01 05:28:34;;;;;;;14.20;12.90;;;;;;;-141.48;100.00;69781.59;4968075;29;20058;-67
2022/07/01 05:32:03;;;;;;;13.00;11.32;;;;;;;-141.48;100.00;69781.59;4954777;29;20154;-68
2022/07/01 05:35:33;;;;;;;14.77;13.23;;;;;;;-141.48;100.00;69781.59;4967170;29;20041;-67
2022/07/01 05:39:02;;;;;;;13.27;12.07;;;;;;;-141.48;100.00;69781.59;4969228;29;20038;-67
2022/07/01 05:42:31;;;;;;;14.23;12.90;;;;;;;-141.48;100.00;69781.59;4969572;29;20033;-67
2022/07/01 05:46:00;;;;;;;14.85;12.85;;;;;;;-141.48;100.00;69781.59;4970030;29;20512;-67
2022/07/01 05:49:29;;;;;;;13.03;11.83;;;;;;;-141.48;100.00;69781.59;4969686;29;20034;-66
2022/07/01 05:52:58;;;;;;;14.02;13.00;;;;;;;-141.48;100.00;69781.59;4971028;29;20070;-67
2022/07/01 05:56:27;;;;;;;13.75;12.65;;;;;;;-141.48;100.00;69781.59;4970048;29;20027;-68
2022/07/01 05:59:56;;;;;;;17.00;13.57;;;;;;;-141.48;100.00;69781.59;4967967;29;20030;-66
2022/07/01 06:03:25;;;;;;;14.93;12.00;;;;;;;-141.48;100.00;69781.59;4970955;29;20031;-66
2022/07/01 06:06:54;;;;;;;14.60;13.27;;;;;;;-141.48;100.00;69781.59;4954185;29;20070;-65
2022/07/01 06:10:23;;;;;;;13.55;12.20;;;;;;;-141.48;100.00;69781.59;4969119;29;20035;-69
2022/07/01 06:13:52;;;;;;;11.50;10.53;;;;;;;-141.48;100.00;69781.59;4970501;29;20073;-67
2022/07/01 06:17:21;;;;;;;14.37;12.57;;;;;;;-141.48;100.00;69781.59;4968395;29;20035;-66
2022/07/01 06:20:50;;;;;;;10.40;9.50;;;;;;;-141.48;100.00;69781.59;4969901;29;20031;-66
2022/07/01 06:24:19;;;;;;;12.90;10.63;;;;;;;-141.48;100.00;69781.59;4968423;29;20276;-65
2022/07/01 06:27:48;;;;;;;10.18;9.15;;;;;;;-141.48;100.00;69781.59;4968748;29;20091;-66
2022/07/01 06:31:17;;;;;;;11.05;10.35;;;;;;;-141.48;100.00;69781.59;4950434;29;20035;-69
2022/07/01 06:34:48;;;;;;;9.57;8.68;;;;;;;-141.48;100.00;69781.59;4951316;29;20039;-66
2022/07/01 06:38:16;;;;;;;8.82;8.23;;;;;;;-141.48;100.00;69781.59;4969299;24;20054;-79
2022/07/01 06:42:07;;;;;;;9.93;9.02;;;;;;;-141.48;100.00;69781.59;4975282;29;20039;-79
2022/07/01 06:45:36;;;;;;;9.48;8.65;;;;;;;-141.48;100.00;69781.59;4974300;29;20042;-78
2022/07/01 06:49:05;;;;;;;9.23;8.45;;;;;;;-141.48;100.00;69781.59;4971975;29;20034;-78
2022/07/01 06:52:34;;;;;;;8.97;8.03;;;;;;;-141.48;100.00;69781.59;4973645;29;20043;-78
2022/07/01 06:56:03;;;;;;;7.85;7.35;;;;;;;-141.48;100.00;69781.59;4947089;29;20035;-78
2022/07/01 06:59:33;;;;;;;8.60;8.00;;;;;;;-141.48;100.00;69781.59;4955578;30;20148;-78
2022/07/01 07:03:02;;;;;;;9.50;8.13;;;;;;;-141.48;100.00;69781.59;4956045;30;20095;-78
2022/07/01 07:06:31;;;;;;;8.40;7.38;;;;;;;-141.48;100.00;69781.59;4955822;30;20076;-78
2022/07/01 07:10:00;;;;;;;8.60;7.13;;;;;;;-141.48;100.00;69781.59;4956074;30;20035;-77
2022/07/01 07:13:29;;;;;;;7.53;6.78;;;;;;;-141.48;100.00;69781.59;4940990;30;20367;-81
2022/07/01 07:16:57;;;;;;;6.78;6.15;;;;;;;-141.48;100.00;69781.59;4956051;30;20027;-77
2022/07/01 07:20:27;;;;;;;5.40;5.00;;;;;;;-141.48;100.00;69781.59;4953962;30;20062;-79
2022/07/01 07:23:56;;;;;;;6.28;5.65;;;;;;;-141.48;100.00;69781.59;4939257;30;20440;-78
2022/07/01 07:27:25;;;;;;;6.07;5.55;;;;;;;-141.48;100.00;69781.59;4955750;30;20042;-79
2022/07/01 07:30:54;;;;;;;5.40;4.90;;;;;;;-141.48;100.00;69781.59;4955898;30;20084;-79
2022/07/01 07:38:49;;;;;;;5.00;4.63;;;;;;;-141.48;100.00;69781.59;4956750;29;20083;-79
2022/07/01 07:42:18;;;;;;;11.95;4.03;;;;;;;-141.48;100.00;69781.59;4944622;30;20529;-79
2022/07/01 07:45:47;;;;;;;4.80;4.45;;;;;;;-141.48;100.00;69781.59;4960486;30;20051;-79
2022/07/01 07:49:16;;;;;;;3.83;3.58;;;;;;;-141.48;100.00;69781.59;4959485;30;20435;-79
2022/07/01 07:52:45;;;;;;;8.30;4.60;;;;;;;-141.48;100.00;69781.59;4958467;30;20031;-80
2022/07/01 07:56:14;;;;;;;6.68;3.15;;;;;;;-141.48;100.00;69781.59;4958943;30;20145;-80
2022/07/01 07:59:43;;;;;;;1.85;1.85;;;;;;;-141.48;100.00;69781.59;4956832;30;20035;-80
2022/07/01 08:03:12;;;;;;;5.97;4.15;;;;;;;-141.48;100.00;69781.59;4954347;30;20035;-80
2022/07/01 08:06:41;;;;;;;3.22;3.00;;;;;;;-141.48;100.00;69781.59;4954738;30;20031;-80
2022/07/01 08:10:11;;;;;;;2.42;2.33;;;;;;;-141.48;100.00;69781.59;4954876;30;20066;-80
2022/07/01 08:13:40;;;;;;;3.63;2.95;;;;;;;-141.48;100.00;69781.59;4954857;30;20031;-79
2022/07/01 08:17:09;;;;;;;3.10;2.88;;;;;;;-141.48;100.00;69781.59;4955031;30;20039;-78
2022/07/01 08:20:38;;;;;;;2.95;2.85;;;;;;;-141.48;100.00;69781.59;4947446;30;20034;-79
2022/07/01 08:24:07;;;;;;;3.03;2.65;;;;;;;-141.48;100.00;69781.59;4947382;30;20109;-79
2022/07/01 08:27:36;;;;;;;2.95;2.75;;;;;;;-141.48;100.00;69781.59;4938854;30;20074;-79
2022/07/01 08:31:05;;;;;;;2.80;2.40;;;;;;;-141.48;100.00;69781.59;4937771;30;20028;-79
2022/07/01 08:34:35;;;;;;;2.28;2.20;;;;;;;-141.48;100.00;69781.59;4950513;30;20043;-83
2022/07/01 08:38:04;;;;;;;2.67;2.58;;;;;;;-141.48;100.00;69781.59;4958289;30;20035;-82
2022/07/01 08:41:33;;;;;;;3.15;2.95;;;;;;;-141.48;100.00;69781.59;4957723;30;20027;-80
2022/07/01 08:45:02;;;;;;;8.85;4.55;;;;;;;-141.48;100.00;69781.59;4939763;30;20038;-78
2022/07/01 08:48:31;;;;;;;7.38;3.92;;;;;;;-141.48;100.00;69781.59;4939466;30;20035;-79
2022/07/01 08:52:00;;;;;;;2.80;2.67;;;;;;;-141.48;100.00;69781.59;4947987;30;20031;-79
2022/07/01 08:55:29;;;;;;;4.25;2.15;;;;;;;-141.48;100.00;69781.59;4939319;30;20036;-79
2022/07/01 08:58:59;;;;;;;6.80;3.13;;;;;;;-141.48;100.00;69781.59;4936618;30;20031;-79
2022/07/01 09:02:47;;;;;;;2.92;2.50;;;;;;;-141.48;100.00;69781.59;4936810;30;20027;-80
2022/07/01 09:06:18;;;;;;;2.50;2.40;;;;;;;-141.48;100.00;69781.59;4946225;30;20047;-79
2022/07/01 09:09:47;;;;;;;3.90;2.65;;;;;;;-141.48;100.00;69781.59;4946269;30;20626;-80
2022/07/01 09:13:16;;;;;;;2.15;2.05;;;;;;;-141.48;100.00;69781.59;4948725;30;20036;-79
2022/07/01 09:16:48;;;;;;;7.32;2.45;;;;;;;-141.48;100.00;69781.59;4946655;30;20069;-78
2022/07/01 09:20:24;;;;;;;3.70;3.47;;;;;;;-141.48;100.00;69781.59;4944113;30;20039;-79
2022/07/01 09:24:25;;;;;;;3.25;3.05;;;;;;;-141.48;100.00;69781.59;4944065;30;20159;-79
2022/07/01 09:28:04;;;;;;;2.95;2.83;;;;;;;-141.48;100.00;69781.59;4972898;24;20055;-60
2022/07/01 09:31:36;;;;;;;2.60;2.45;;;;;;;-141.48;100.00;69781.59;4969243;29;20046;-61
2022/07/01 09:35:06;;;;;;;3.40;3.03;;;;;;;-141.48;100.00;69781.59;4969414;29;20073;-61
2022/07/01 09:38:45;;;;;;;3.45;2.65;;;;;;;-141.48;100.00;69781.59;4970035;29;20171;-60
2022/07/01 09:42:14;;;;;;;3.72;2.58;;;;;;;-141.48;100.00;69781.59;4969010;29;20039;-60
2022/07/01 09:46:01;;;;;;;3.53;2.97;;;;;;;-141.48;100.00;69781.59;4969010;29;20484;-61
2022/07/01 09:49:33;;;;;;;3.28;3.08;;;;;;;-141.48;100.00;69781.59;4970316;29;20034;-60
2022/07/01 09:53:02;;;;;;;16.38;2.63;;;;;;;-141.48;100.00;69781.59;4970324;29;20041;-60
2022/07/01 09:56:32;;;;;;;2.65;2.53;;;;;;;-141.48;100.00;69781.59;4967412;29;20058;-61
2022/07/01 10:00:03;;;;;;;1.65;1.65;;;;;;;-141.48;100.00;69781.59;4987066;24;20082;-78
2022/07/01 10:03:33;;;;;;;1.58;1.58;;;;;;;-141.48;100.00;69781.59;4975315;29;20051;-78
2022/07/01 10:07:22;;;;;;;2.17;2.08;;;;;;;-141.48;100.00;69781.59;4973825;29;20041;-78
2022/07/01 10:11:17;;;;;;;2.50;2.40;;;;;;;-141.48;100.00;69781.59;4975150;29;20481;-78
2022/07/01 10:14:48;;;;;;;10.25;3.50;;;;;;;-141.48;100.00;69781.59;4972853;29;20054;-78
2022/07/01 10:18:27;;;;;;;2.70;2.45;;;;;;;-141.48;100.00;69781.59;4972609;29;20027;-78
2022/07/01 10:21:59;;;;;;;2.53;2.33;;;;;;;-141.48;100.00;69781.59;4974250;29;20049;-78
2022/07/01 10:25:29;;;;;;;3.05;2.88;;;;;;;-141.48;100.00;69781.59;4973136;29;20054;-78
2022/07/01 10:29:00;;;;;;;;;;;;;;;-141.48;100.00;69781.59;4973236;29;20058;-78
2022/07/01 10:32:41;;;;;;;2.40;2.22;;;;;;;-141.48;100.00;69781.59;4974707;29;19912;-78
2022/07/01 10:36:15;;;;;;;3.13;2.50;;;;;;;-141.48;100.00;69781.59;4966234;29;20095;-78
2022/07/01 10:40:00;;;;;;;2.33;2.33;;;;;;;-141.48;100.00;69781.59;4954468;30;20031;-79
2022/07/01 10:43:33;;;;;;;4.32;1.98;;;;;;;-141.48;100.00;69781.59;4942737;29;20032;-80
2022/07/01 10:47:03;;;;;;;2.50;2.30;;;;;;;-141.48;100.00;69781.59;4920815;30;20085;-79
2022/07/01 10:50:37;;;;;;;1.80;1.70;;;;;;;-141.48;100.00;69781.59;4935971;30;20085;-78
2022/07/01 10:54:06;;;;;;;2.53;2.17;;;;;;;-141.48;100.00;69781.59;4934916;30;20044;-78
2022/07/01 10:57:40;;;;;;;4.68;1.67;;;;;;;-141.48;100.00;69781.59;4934968;30;20039;-79
2022/07/01 11:01:09;;;;;;;1.90;1.80;;;;;;;-141.48;100.00;69781.59;4933403;30;20040;-78
2022/07/01 11:04:38;;;;;;;4.63;2.78;;;;;;;-141.48;100.00;69781.59;4933902;30;20031;-77
2022/07/01 11:08:08;;;;;;;7.25;2.38;;;;;;;-141.48;100.00;69781.59;4933700;30;20043;-78
2022/07/01 11:16:21;;;;;;;7.00;2.90;;;;;;;-141.48;100.00;69781.59;4935178;30;20113;-79
2022/07/01 11:19:52;;;;;;;5.07;3.75;;;;;;;-141.48;100.00;69781.59;4976157;24;20038;-62
2022/07/01 11:23:22;;;;;;;2.38;2.17;;;;;;;-141.48;100.00;69781.59;4953321;29;20407;-61
2022/07/01 11:26:54;;;;;;;2.05;1.95;;;;;;;-141.48;100.00;69781.59;4953441;29;20027;-61
2022/07/01 11:30:24;;;;;;;3.17;2.05;;;;;;;-141.48;100.00;69781.59;4952712;29;20034;-62
2022/07/01 11:33:55;;;;;;;1.80;1.70;;;;;;;-141.48;100.00;69781.59;4969489;29;20038;-62
2022/07/01 11:41:20;;;;;;;2.30;2.10;;;;;;;-141.48;100.00;69781.59;4969252;29;20053;-62
2022/07/01 11:44:49;;;;;;;3.78;2.78;;;;;;;-141.48;100.00;69781.59;4968904;29;20113;-62
2022/07/01 11:48:50;;;;;;;;;;;;;;;-141.48;100.00;69781.59;4969781;29;20030;-62
2022/07/01 11:52:22;;;;;;;2.08;1.85;;;;;;;-141.48;100.00;69781.59;4955767;29;19948;-62
2022/07/01 11:55:55;;;;;;;3.40;2.28;;;;;;;-141.48;100.00;69781.59;4971429;29;20441;-61
2022/07/01 11:59:39;;;;;;;1.90;1.83;;;;;;;-141.48;100.00;69781.59;4959963;29;20039;-62
2022/07/01 12:03:10;;;;;;;4.00;2.50;;;;;;;-141.48;100.00;69781.59;4962978;29;20082;-62
2022/07/01 12:06:41;;;;;;;3.80;2.33;;;;;;;-141.48;100.00;69781.59;4969914;29;20027;-61
2022/07/01 12:10:14;;;;;;;3.67;1.95;;;;;;;-141.48;100.00;69781.59;4968637;29;20447;-61
2022/07/01 12:13:47;;;;;;;2.65;1.92;;;;;;;-141.48;100.00;69781.59;4969153;29;20030;-62
2022/07/01 12:17:16;;;;;;;1.77;1.67;;;;;;;-141.48;100.00;69781.59;4969242;29;20114;-62
2022/07/01 12:24:24;;;;;;;1.70;1.60;;;;;;;-141.48;100.00;69781.59;5905743;24;20838;-91
2022/07/01 12:27:58;;;;;;;3.08;1.33;;;;;;;-141.48;100.00;69781.59;4966881;29;20115;-92
2022/07/01 12:32:10;;;;;;;4.70;1.77;;;;;;;-141.48;100.00;69781.59;4943461;30;20031;-93
2022/07/01 12:43:36;;;;;;;2.88;2.70;;;;;;;-141.48;100.00;69781.59;5376928;24;20047;-88
2022/07/01 12:47:18;;;;;;;1.60;1.58;;;;;;;-141.48;100.00;69781.59;4962516;29;20022;-87
2022/07/01 12:50:47;;;;;;;2.35;1.98;;;;;;;-141.48;100.00;69781.59;4968615;29;20043;-88
2022/07/01 12:54:48;;;;;;;2.40;2.28;;;;;;;-141.48;100.00;69781.59;4968228;29;20413;-89
2022/07/01 12:58:27;;;;;;;4.13;2.33;;;;;;;-141.48;100.00;69781.59;4963857;29;20156;-88
2022/07/01 13:02:00;;;;;;;;;;;;;;;-141.48;100.00;69781.59;4951755;30;20027;-89
2022/07/01 13:05:30;;;;;;;10.52;2.28;;;;;;;-141.48;100.00;69781.59;4952694;30;19917;-91
2022/07/01 13:09:00;;;;;;;13.55;2.67;;;;;;;-141.48;100.00;69781.59;4952392;30;20039;-87
2022/07/01 13:12:29;;;;;;;7.55;3.75;;;;;;;-141.48;100.00;69781.59;4953034;30;20035;-85
2022/07/01 13:15:58;;;;;;;1.90;1.80;;;;;;;-141.48;100.00;69781.59;4953115;30;20035;-84
2022/07/01 13:19:27;;;;;;;;;;;;;;;-141.48;100.00;69781.59;4950916;30;20054;-85
2022/07/01 13:22:56;;;;;;;2.15;2.05;;;;;;;-141.48;100.00;69781.59;4962279;30;19977;-83
2022/07/01 13:26:25;;;;;;;;;;;;;;;-141.48;100.00;69781.59;4967299;29;20606;-83
2022/07/01 13:29:54;;;;;;;1.50;1.40;;;;;;;-141.48;100.00;69781.59;4966100;29;19920;-85
2022/07/01 13:33:23;;;;;;;1.70;1.60;;;;;;;-141.48;100.00;69781.59;4964296;29;20482;-84
2022/07/01 13:36:52;;;;;;;1.38;1.38;;;;;;;-141.48;100.00;69781.59;4979880;29;20043;-84
2022/07/01 13:40:24;;;;;;;4.05;2.05;;;;;;;-141.48;100.00;69781.59;4964667;29;20031;-86
2022/07/01 13:43:56;;;;;;;3.70;1.75;;;;;;;-141.48;100.00;69781.59;4984028;29;20068;-91
2022/07/01 13:48:01;;;;;;;1.52;1.52;;;;;;;-141.48;100.00;69781.59;4898730;30;20060;-91
2022/07/01 13:51:31;;;;;;;2.80;1.83;;;;;;;-141.48;100.00;69781.59;4968653;29;20072;-91
2022/07/01 13:55:00;;;;;;;1.50;1.50;;;;;;;-141.48;100.00;69781.59;4967667;29;20069;-90
2022/07/01 13:58:29;;;;;;;;;;;;;;;-141.48;100.00;69781.59;4971531;29;20099;-91
2022/07/01 14:01:59;;;;;;;1.92;1.83;;;;;;;-141.48;100.00;69781.59;4966970;29;20438;-88
2022/07/01 14:05:28;;;;;;;;;;;;;;;-141.48;100.00;69781.59;4964194;29;20027;-88
2022/07/01 14:08:56;;;;;;;2.05;1.42;;;;;;;-141.48;100.00;69781.59;4966197;29;19936;-87
2022/07/01 14:12:25;;;;;;;2.25;2.10;;;;;;;-141.48;100.00;69781.59;4982113;29;20082;-89
2022/07/01 14:15:55;;;;;;;31.25;3.53;;;;;;;-141.48;100.00;69781.59;4967154;29;20038;-88
2022/07/01 14:19:24;;;;;;;2.33;2.22;;;;;;;-141.48;100.00;69781.59;4972177;29;20033;-87
2022/07/01 14:22:53;;;;;;;4.72;2.85;;;;;;;-141.48;100.00;69781.59;4973522;29;20027;-87
2022/07/01 14:26:22;;;;;;;2.38;2.25;;;;;;;-141.48;100.00;69781.59;4975984;29;20023;-87
2022/07/01 14:29:51;;;;;;;1.85;1.83;;;;;;;-141.48;100.00;69781.59;4990268;29;20031;-88
2022/07/01 14:33:21;;;;;;;3.92;2.65;;;;;;;-141.48;100.00;69781.59;4990471;29;20030;-87
2022/07/01 14:36:49;;;;;;;;;;;;;;;-141.48;100.00;69781.59;4973931;29;20041;-85
2022/07/01 14:40:18;;;;;;;3.33;2.80;;;;;;;-141.48;100.00;69781.59;4995182;29;19921;-88
2022/07/01 14:43:47;;;;;;;2.20;2.10;;;;;;;-141.48;100.00;69781.59;4981974;29;20038;-88
2022/07/01 14:47:16;;;;;;;2.90;2.80;;;;;;;-141.48;100.00;69781.59;4981129;29;20027;-86
2022/07/01 14:50:45;;;;;;;3.03;2.83;;;;;;;-141.48;100.00;69781.59;4980760;29;20027;-86
2022/07/01 14:54:14;;;;;;;3.00;2.90;;;;;;;-141.48;100.00;69781.59;4979687;29;20034;-87
2022/07/01 14:57:43;;;;;;;2.22;2.03;;;;;;;-141.48;100.00;69781.59;4964119;29;20097;-86
2022/07/01 15:01:13;;;;;;;2.80;2.60;;;;;;;-141.48;100.00;69781.59;4964286;29;20038;-87
2022/07/01 15:04:42;;;;;;;2.83;2.72;;;;;;;-141.48;100.00;69781.59;4979514;29;20442;-86
2022/07/01 15:08:14;;;;;;;2.90;2.80;;;;;;;-141.48;100.00;69781.59;4980295;29;20027;-86
2022/07/01 15:11:42;;;;;;;2.38;2.28;;;;;;;-141.48;100.00;69781.59;4979353;29;20110;-86
2022/07/01 15:15:11;;;;;;;4.53;4.13;;;;;;;-141.48;100.00;69781.59;4979087;29;20087;-86
2022/07/01 15:18:42;;;;;;;2.67;2.25;;;;;;;-141.48;100.00;69781.59;4980659;29;20062;-88
2022/07/01 15:22:12;;;;;;;3.17;2.95;;;;;;;-141.48;100.00;69781.59;4963788;29;20027;-86
2022/07/01 15:25:41;;;;;;;2.10;2.00;;;;;;;-141.48;100.00;69781.59;4979170;29;20029;-86
2022/07/01 15:29:10;;;;;;;2.90;2.35;;;;;;;-141.48;100.00;69781.59;4979301;29;20464;-86
2022/07/01 15:32:39;;;;;;;2.88;2.67;;;;;;;-141.48;100.00;69781.59;4979150;29;20054;-87
2022/07/01 15:36:08;;;;;;;3.00;2.03;;;;;;;-141.48;100.00;69781.59;4979207;29;20487;-86
2022/07/01 15:39:38;;;;;;;2.88;1.20;;;;;;;-141.48;100.00;69781.59;4978820;29;20035;-85
2022/07/01 15:43:07;;;;;;;1.40;1.40;;;;;;;-141.48;100.00;69781.59;4978625;29;20038;-85
2022/07/01 15:46:36;;;;;;;1.38;1.38;;;;;;;-141.48;100.00;69781.59;4978017;29;20543;-85
2022/07/01 15:50:06;;;;;;;1.10;1.10;;;;;;;-141.48;100.00;69781.59;4977640;29;20082;-86
2022/07/01 15:53:35;;;;;;;2.25;2.15;;;;;;;-141.48;100.00;69781.59;4977513;29;20121;-87
2022/07/01 15:57:04;;;;;;;6.20;2.08;;;;;;;-141.48;100.00;69781.59;4961348;29;20027;-86
2022/07/01 16:00:33;;;;;;;12.80;2.85;;;;;;;-141.48;100.00;69781.59;4977836;29;20109;-86
2022/07/01 16:04:03;;;;;;;1.67;1.58;;;;;;;-141.48;100.00;69781.59;4978744;29;20030;-88
2022/07/01 16:07:34;;;;;;;2.25;1.50;;;;;;;-141.48;100.00;69781.59;4978092;29;20046;-88
2022/07/01 16:11:08;;;;;;;1.52;1.42;;;;;;;-141.48;100.00;69781.59;4961314;29;20364;-86
2022/07/01 16:14:42;;;;;;;1.05;1.05;;;;;;;-141.48;100.00;69781.59;4961623;29;20509;-85
2022/07/01 16:18:13;;;;;;;3.45;2.08;;;;;;;-141.48;100.00;69781.59;4963197;29;20069;-85
2022/07/01 16:21:46;;;;;;;6.25;1.85;;;;;;;-141.48;100.00;69781.59;4978802;29;20460;-86
2022/07/01 16:25:20;;;;;;;2.65;2.03;;;;;;;-141.48;100.00;69781.59;4985936;29;20018;-85
2022/07/01 16:28:51;;;;;;;3.35;1.95;;;;;;;-141.48;100.00;69781.59;4991718;29;20031;-85